Sertaozinho, Brazil
Current Conditions -  °F | °C
As of 11:00 PM on Friday 19 Dec 2014 (Local Time) from SBRP Reporting Station
Clear Clear  
Wind Chill: 79°   Ceiling: Unl
Heat Index: 81°   Visibility: 6mi
Dew Point: 64°   Wind: 8mph
Humidity: 61%   Direction: 330°NNW
Pressure: 29.85"   Gusts: NA
Location:  21.14°S, 47.99°W
Report Text: SBRP 200100Z 33007KT CAVOK 26/18 Q1011
Loading
Personal Weather Stations






























Interactive Weather Map New forecast layout! Learn more

10-Day Weather Forecast

Advertisements
Track Severe Weather on mobile